createdAt,value
2018-08-24T00:00:02.223Z,95.31
2018-08-24T00:01:02.204Z,95.03
2018-08-24T00:02:02.182Z,95.79
2018-08-24T00:03:02.165Z,95.41
2018-08-24T00:04:02.142Z,95.60
2018-08-24T00:05:02.124Z,94.93
2018-08-24T00:06:02.100Z,94.98
2018-08-24T00:07:02.081Z,94.93
2018-08-24T00:08:02.062Z,95.03
2018-08-24T00:09:02.039Z,94.59
2018-08-24T00:10:02.020Z,96.61
2018-08-24T00:11:01.998Z,96.42
2018-08-24T00:12:01.978Z,95.75
2018-08-24T00:13:01.999Z,95.26
2018-08-24T00:14:01.935Z,94.98
2018-08-24T00:15:01.918Z,94.89
2018-08-24T00:16:01.896Z,95.17
2018-08-24T00:17:01.882Z,95.26
2018-08-24T00:18:01.854Z,95.07
2018-08-24T00:19:01.834Z,94.59
2018-08-24T00:20:01.813Z,95.89
2018-08-24T00:21:01.792Z,95.70
2018-08-24T00:22:01.771Z,96.27
2018-08-24T00:23:01.750Z,95.98
2018-08-24T00:24:01.772Z,94.45
2018-08-24T00:25:01.713Z,94.26
2018-08-24T00:26:01.690Z,94.26
2018-08-24T00:27:01.667Z,94.74
2018-08-24T00:28:01.648Z,94.26
2018-08-24T00:29:01.626Z,93.68
2018-08-24T00:30:01.606Z,94.35
2018-08-24T00:31:01.587Z,94.17
2018-08-24T00:32:01.565Z,94.93
2018-08-24T00:33:01.545Z,95.12
2018-08-24T00:34:01.524Z,94.84
2018-08-24T00:35:01.506Z,94.84
2018-08-24T00:36:01.481Z,96.75
2018-08-24T00:37:01.462Z,96.94
2018-08-24T00:38:01.440Z,96.47
2018-08-24T00:39:01.429Z,96.42
2018-08-24T00:40:01.458Z,96.42
2018-08-24T00:41:01.380Z,96.70
2018-08-24T00:42:01.357Z,96.42
2018-08-24T00:43:01.338Z,96.22
2018-08-24T00:44:01.320Z,96.70
2018-08-24T00:45:01.299Z,96.80
2018-08-24T00:46:01.277Z,96.03
2018-08-24T00:47:01.256Z,95.46
2018-08-24T00:48:01.238Z,95.46
2018-08-24T00:49:01.216Z,95.26
2018-08-24T00:50:01.194Z,94.21
2018-08-24T00:51:01.174Z,93.44
2018-08-24T00:52:01.151Z,93.54
2018-08-24T00:53:01.135Z,93.54
2018-08-24T00:54:01.111Z,93.40
2018-08-24T00:55:01.094Z,94.12
2018-08-24T00:56:01.072Z,94.26
2018-08-24T00:57:01.056Z,95.26
2018-08-24T00:58:01.028Z,95.26
2018-08-24T00:59:01.008Z,94.98
2018-08-24T01:00:00.987Z,95.26
2018-08-24T01:01:00.969Z,95.51
2018-08-24T01:02:00.946Z,95.94
2018-08-24T01:03:00.929Z,95.41
2018-08-24T01:04:00.907Z,96.27
2018-08-24T01:05:00.885Z,95.98
2018-08-24T01:06:00.864Z,96.27
2018-08-24T01:07:00.844Z,96.75
2018-08-24T01:08:00.825Z,96.47
2018-08-24T01:09:00.804Z,97.14
2018-08-24T01:10:00.782Z,97.42
2018-08-24T01:11:00.762Z,96.56
2018-08-24T01:12:00.742Z,96.66
2018-08-24T01:13:00.722Z,96.27
2018-08-24T01:14:00.699Z,95.41
2018-08-24T01:15:00.679Z,96.56
2018-08-24T01:16:00.659Z,96.27
2018-08-24T01:17:00.638Z,96.56
2018-08-24T01:18:00.617Z,96.75
2018-08-24T01:19:00.597Z,96.37
2018-08-24T01:20:00.576Z,96.08
2018-08-24T01:21:00.555Z,96.56
2018-08-24T01:22:00.535Z,97.61
2018-08-24T01:23:00.515Z,97.04
2018-08-24T01:24:00.494Z,96.47
2018-08-24T01:25:00.473Z,97.33
2018-08-24T01:26:00.451Z,96.66
2018-08-24T01:27:00.431Z,96.47
2018-08-24T01:28:00.412Z,97.28
2018-08-24T01:29:00.391Z,97.38
2018-08-24T01:30:00.371Z,96.18
2018-08-24T01:31:00.349Z,96.22
2018-08-24T01:32:00.327Z,96.18
2018-08-24T01:33:00.312Z,96.18
2018-08-24T01:34:00.286Z,96.32
2018-08-24T01:35:00.267Z,96.32
2018-08-24T01:36:00.249Z,97.42
2018-08-24T01:37:00.225Z,97.61
2018-08-24T01:38:00.205Z,97.18
2018-08-24T01:39:00.185Z,97.33
2018-08-24T01:40:00.163Z,97.52
2018-08-24T01:41:00.143Z,98.24
2018-08-24T01:42:00.125Z,97.56
2018-08-24T01:43:00.102Z,98.00
2018-08-24T01:44:00.082Z,97.80
2018-08-24T01:45:00.062Z,97.80
2018-08-24T01:46:00.040Z,97.80
2018-08-24T01:47:00.019Z,97.61
2018-08-24T01:48:00.004Z,97.56
2018-08-24T01:48:59.979Z,97.56
2018-08-24T01:49:59.959Z,97.09
2018-08-24T01:50:59.937Z,96.80
2018-08-24T01:51:59.917Z,97.18
2018-08-24T01:52:59.904Z,98.05
2018-08-24T01:53:59.876Z,97.85
2018-08-24T01:54:59.855Z,97.76
2018-08-24T01:55:59.835Z,98.05
2018-08-24T01:56:59.813Z,97.66
2018-08-24T01:57:59.794Z,97.76
2018-08-24T01:58:59.823Z,97.81
2018-08-24T01:59:59.751Z,97.23
2018-08-24T02:00:59.735Z,97.14
2018-08-24T02:01:59.711Z,97.52
2018-08-24T02:02:59.693Z,96.75
2018-08-24T02:03:59.670Z,96.94
2018-08-24T02:04:59.651Z,96.85
2018-08-24T02:05:59.630Z,96.66
2018-08-24T02:06:59.609Z,97.04
2018-08-24T02:07:59.588Z,96.85
2018-08-24T02:08:59.570Z,96.75
2018-08-24T02:09:59.547Z,96.94
2018-08-24T02:10:59.527Z,96.27
2018-08-24T02:11:59.506Z,94.84
2018-08-24T02:12:59.488Z,95.12
2018-08-24T02:13:59.465Z,94.26
2018-08-24T02:14:59.448Z,94.35
2018-08-24T02:15:59.425Z,94.84
2018-08-24T02:16:59.406Z,95.31
2018-08-24T02:17:59.385Z,95.03
2018-08-24T02:18:59.365Z,95.21
2018-08-24T02:19:59.344Z,94.64
2018-08-24T02:20:59.325Z,95.31
2018-08-24T02:21:59.304Z,95.98
2018-08-24T02:22:59.293Z,96.66
2018-08-24T02:23:59.263Z,96.18
2018-08-24T02:24:59.243Z,95.70
2018-08-24T02:25:59.221Z,95.51
2018-08-24T02:26:59.204Z,95.70
2018-08-24T02:27:59.183Z,94.84
2018-08-24T02:28:59.165Z,95.17
2018-08-24T02:29:59.140Z,95.75
2018-08-24T02:30:59.121Z,94.88
2018-08-24T02:31:59.101Z,94.79
2018-08-24T02:32:59.079Z,94.49
2018-08-24T02:33:59.060Z,94.79
2018-08-24T02:34:59.050Z,94.40
2018-08-24T02:35:59.020Z,94.02
2018-08-24T02:36:58.999Z,94.16
2018-08-24T02:37:58.978Z,94.12
2018-08-24T02:38:58.958Z,94.45
2018-08-24T02:39:58.941Z,93.59
2018-08-24T02:40:58.919Z,93.68
2018-08-24T02:41:58.899Z,93.49
2018-08-24T02:42:58.877Z,93.49
2018-08-24T02:43:58.858Z,94.07
2018-08-24T02:44:58.933Z,94.21
2018-08-24T02:45:58.820Z,94.02
2018-08-24T02:46:58.798Z,94.21
2018-08-24T02:47:58.777Z,94.69
2018-08-24T02:48:58.756Z,94.59
2018-08-24T02:49:58.735Z,94.79
2018-08-24T02:50:58.717Z,94.45
2018-08-24T02:51:58.697Z,94.35
2018-08-24T02:52:58.676Z,94.02
2018-08-24T02:53:58.655Z,93.77
2018-08-24T02:54:58.635Z,93.92
2018-08-24T02:55:58.616Z,94.12
2018-08-24T02:56:58.595Z,94.12
2018-08-24T02:57:58.574Z,93.97
2018-08-24T02:58:58.554Z,94.12
2018-08-24T02:59:58.536Z,94.35
2018-08-24T03:00:58.514Z,94.07
2018-08-24T03:01:58.493Z,93.20
2018-08-24T03:02:58.475Z,94.07
2018-08-24T03:03:58.454Z,93.49
2018-08-24T03:04:58.444Z,93.59
2018-08-24T03:05:58.415Z,93.01
2018-08-24T03:06:58.392Z,92.72
2018-08-24T03:07:58.372Z,93.25
2018-08-24T03:08:58.354Z,92.86
2018-08-24T03:09:58.332Z,92.77
2018-08-24T03:10:58.313Z,92.38
2018-08-24T03:11:58.293Z,92.38
2018-08-24T03:12:58.273Z,92.67
2018-08-24T03:13:58.252Z,92.86
2018-08-24T03:14:58.232Z,92.86
2018-08-24T03:15:58.227Z,92.96
2018-08-24T03:16:58.192Z,92.57
2018-08-24T03:17:58.171Z,92.57
2018-08-24T03:18:58.152Z,92.57
2018-08-24T03:19:58.132Z,93.25
2018-08-24T03:20:58.112Z,92.86
2018-08-24T03:21:58.091Z,93.05
2018-08-24T03:22:58.071Z,92.86
2018-08-24T03:23:58.050Z,93.05
2018-08-24T03:24:58.031Z,92.86
2018-08-24T03:25:58.011Z,92.86
2018-08-24T03:26:57.991Z,93.15
2018-08-24T03:27:57.970Z,93.15
2018-08-24T03:28:57.951Z,93.15
2018-08-24T03:29:57.930Z,93.54
2018-08-24T03:30:57.911Z,93.44
2018-08-24T03:31:57.892Z,93.34
2018-08-24T03:32:57.871Z,92.96
2018-08-24T03:33:57.851Z,93.05
2018-08-24T03:34:57.830Z,93.54
2018-08-24T03:35:57.810Z,93.44
2018-08-24T03:36:57.792Z,94.21
2018-08-24T03:37:57.770Z,94.69
2018-08-24T03:38:57.752Z,94.49
2018-08-24T03:39:57.731Z,94.31
2018-08-24T03:40:57.710Z,94.88
2018-08-24T03:41:57.689Z,95.21
2018-08-24T03:42:57.669Z,94.31
2018-08-24T03:43:57.649Z,95.36
2018-08-24T03:44:57.631Z,95.26
2018-08-24T03:45:57.667Z,94.98
2018-08-24T03:46:57.590Z,95.17
2018-08-24T03:47:57.570Z,95.41
2018-08-24T03:48:57.549Z,95.98
2018-08-24T03:49:57.529Z,96.18
2018-08-24T03:50:57.513Z,95.84
2018-08-24T03:51:57.488Z,96.27
2018-08-24T03:52:57.532Z,95.21
2018-08-24T03:53:57.448Z,95.84
2018-08-24T03:54:57.427Z,94.88
2018-08-24T03:55:57.407Z,94.49
2018-08-24T03:56:57.390Z,94.78
2018-08-24T03:57:57.367Z,94.69
2018-08-24T03:58:57.347Z,94.31
2018-08-24T03:59:57.327Z,93.97
2018-08-24T04:00:57.310Z,94.11
2018-08-24T04:01:57.285Z,94.31
2018-08-24T04:02:57.265Z,94.59
2018-08-24T04:03:57.261Z,94.69
2018-08-24T04:04:57.226Z,94.31
2018-08-24T04:05:57.204Z,94.26
2018-08-24T04:06:57.184Z,94.78
2018-08-24T04:07:57.165Z,95.07
2018-08-24T04:08:57.145Z,94.78
2018-08-24T04:09:57.124Z,94.21
2018-08-24T04:10:57.104Z,94.69
2018-08-24T04:11:57.085Z,94.31
2018-08-24T04:12:57.168Z,94.21
2018-08-24T04:13:57.042Z,98.24
2018-08-24T04:14:57.023Z,99.99
2018-08-24T04:15:57.005Z,99.99
2018-08-24T04:16:56.983Z,99.99
2018-08-24T04:17:56.962Z,99.99
2018-08-24T04:18:56.942Z,99.99
2018-08-24T04:19:56.922Z,99.99
2018-08-24T04:20:56.901Z,99.99
2018-08-24T04:21:56.881Z,99.99
2018-08-24T04:22:56.861Z,99.99
2018-08-24T04:23:56.841Z,99.99
2018-08-24T04:24:56.820Z,99.99
2018-08-24T04:25:56.880Z,99.99
2018-08-24T04:26:56.779Z,99.99
2018-08-24T04:27:56.760Z,99.99
2018-08-24T04:28:56.738Z,99.99
2018-08-24T04:29:56.720Z,99.99
2018-08-24T04:30:56.699Z,99.99
2018-08-24T04:31:56.680Z,99.99
2018-08-24T04:32:56.658Z,99.99
2018-08-24T04:33:56.636Z,99.99
2018-08-24T04:34:56.673Z,99.99
2018-08-24T04:35:56.596Z,99.99
2018-08-24T04:36:56.577Z,99.99
2018-08-24T04:37:56.553Z,99.99
2018-08-24T04:38:56.536Z,99.99
2018-08-24T04:39:56.513Z,99.99
2018-08-24T04:40:56.494Z,99.99
2018-08-24T04:41:56.472Z,99.99
2018-08-24T04:42:56.455Z,99.99
2018-08-24T04:43:56.432Z,99.99
2018-08-24T04:44:56.415Z,99.99
2018-08-24T04:45:56.390Z,99.99
2018-08-24T04:46:56.371Z,99.99
2018-08-24T04:47:56.350Z,99.99
2018-08-24T04:48:56.330Z,99.99
2018-08-24T04:49:56.309Z,99.99
2018-08-24T04:50:56.289Z,99.99
2018-08-24T04:51:56.266Z,99.99
2018-08-24T04:52:56.247Z,99.99
2018-08-24T04:53:56.226Z,99.99
2018-08-24T04:54:56.207Z,99.99
2018-08-24T04:55:56.185Z,99.99
2018-08-24T04:56:56.164Z,99.99
2018-08-24T04:57:56.143Z,99.99
2018-08-24T04:58:56.122Z,99.99
2018-08-24T04:59:56.102Z,99.99
2018-08-24T05:00:56.081Z,99.99
2018-08-24T05:01:56.059Z,99.99
2018-08-24T05:02:56.042Z,99.99
2018-08-24T05:03:56.019Z,99.99
2018-08-24T05:04:56.003Z,99.99
2018-08-24T05:05:55.977Z,99.99
2018-08-24T05:06:55.956Z,99.99
2018-08-24T05:07:55.937Z,99.99
2018-08-24T05:08:55.917Z,99.99
2018-08-24T05:09:55.893Z,99.99
2018-08-24T05:10:55.872Z,99.99
2018-08-24T05:11:55.852Z,99.99
2018-08-24T05:12:55.832Z,99.99
2018-08-24T05:13:55.810Z,99.99
2018-08-24T05:14:55.790Z,99.99
2018-08-24T05:15:55.772Z,99.99
2018-08-24T05:16:55.749Z,99.99
2018-08-24T05:17:55.727Z,99.99
2018-08-24T05:18:55.706Z,99.99
2018-08-24T05:19:55.687Z,99.99
2018-08-24T05:20:55.667Z,99.99
2018-08-24T05:21:55.645Z,99.99
2018-08-24T05:22:55.623Z,99.99
2018-08-24T05:23:55.606Z,99.99
2018-08-24T05:24:55.661Z,99.99
2018-08-24T05:25:55.563Z,99.99
2018-08-24T05:26:55.542Z,99.99
2018-08-24T05:27:55.524Z,99.99
2018-08-24T05:28:55.502Z,99.99
2018-08-24T05:29:55.483Z,99.99
2018-08-24T05:30:55.463Z,99.99
2018-08-24T05:31:55.443Z,99.99
2018-08-24T05:32:55.422Z,99.99
2018-08-24T05:33:55.403Z,99.99
2018-08-24T05:34:55.383Z,99.99
2018-08-24T05:35:55.363Z,98.63
2018-08-24T05:36:55.344Z,98.53
2018-08-24T05:37:55.323Z,98.10
2018-08-24T05:38:55.306Z,95.65
2018-08-24T05:39:55.284Z,94.06
2018-08-24T05:40:55.263Z,93.67
2018-08-24T05:41:55.245Z,93.29
2018-08-24T05:42:55.230Z,92.27
2018-08-24T05:43:55.207Z,91.79
2018-08-24T05:44:55.189Z,92.13
2018-08-24T05:45:55.169Z,90.58
2018-08-24T05:46:55.152Z,90.44
2018-08-24T05:47:55.132Z,92.22
2018-08-24T05:48:55.141Z,93.96
2018-08-24T05:49:55.095Z,95.45
2018-08-24T05:50:55.081Z,95.55
2018-08-24T05:51:55.059Z,95.89
2018-08-24T05:52:55.042Z,95.79
2018-08-24T05:53:55.022Z,93.72
2018-08-24T05:54:55.005Z,92.61
2018-08-24T05:55:54.986Z,88.75
2018-08-24T05:56:54.967Z,85.57
2018-08-24T05:57:54.947Z,86.05
2018-08-24T05:58:54.929Z,83.59
2018-08-24T05:59:54.913Z,80.87
2018-08-24T06:00:54.894Z,81.20
2018-08-24T06:01:54.876Z,78.83
2018-08-24T06:02:54.859Z,77.75
2018-08-24T06:03:54.841Z,76.93
2018-08-24T06:04:54.824Z,77.38
2018-08-24T06:05:54.807Z,77.76
2018-08-24T06:06:54.790Z,77.73
2018-08-24T06:07:54.773Z,78.41
2018-08-24T06:08:54.757Z,78.46
2018-08-24T06:09:54.739Z,81.95
2018-08-24T06:10:54.722Z,83.45
2018-08-24T06:11:54.704Z,84.66
2018-08-24T06:12:54.688Z,86.45
2018-08-24T06:13:54.670Z,87.27
2018-08-24T06:14:54.654Z,88.24
2018-08-24T06:15:54.710Z,88.24
2018-08-24T06:16:54.620Z,89.49
2018-08-24T06:17:54.600Z,90.64
2018-08-24T06:18:54.587Z,89.44
2018-08-24T06:19:54.566Z,87.90
2018-08-24T06:20:54.548Z,89.54
2018-08-24T06:21:54.529Z,89.73
2018-08-24T06:22:54.513Z,89.15
2018-08-24T06:23:54.493Z,90.59
2018-08-24T06:24:54.475Z,90.31
2018-08-24T06:25:54.456Z,91.17
2018-08-24T06:26:54.437Z,91.46
2018-08-24T06:27:54.419Z,91.08
2018-08-24T06:28:54.402Z,90.98
2018-08-24T06:29:54.381Z,90.89
2018-08-24T06:30:54.363Z,90.50
2018-08-24T06:31:54.345Z,91.27
2018-08-24T06:32:54.402Z,90.79
2018-08-24T06:33:54.308Z,90.79
2018-08-24T06:34:54.290Z,91.17
2018-08-24T06:35:54.269Z,91.27
2018-08-24T06:36:54.260Z,90.98
2018-08-24T06:37:54.235Z,90.21
2018-08-24T06:38:54.213Z,89.35
2018-08-24T06:39:54.200Z,90.89
2018-08-24T06:40:54.177Z,89.64
2018-08-24T06:41:54.171Z,90.02
2018-08-24T06:42:54.138Z,90.02
2018-08-24T06:43:54.120Z,89.06
2018-08-24T06:44:54.100Z,87.33
2018-08-24T06:45:54.081Z,88.29
2018-08-24T06:46:54.061Z,87.66
2018-08-24T06:47:54.043Z,88.43
2018-08-24T06:48:54.025Z,86.99
2018-08-24T06:49:54.006Z,86.12
2018-08-24T06:50:53.986Z,86.45
2018-08-24T06:51:53.969Z,85.78
2018-08-24T06:52:53.958Z,86.26
2018-08-24T06:53:54.023Z,84.81
2018-08-24T06:54:53.911Z,83.66
2018-08-24T06:55:53.893Z,84.53
2018-08-24T06:56:53.875Z,83.08
2018-08-24T06:57:53.855Z,82.89
2018-08-24T06:58:53.837Z,82.35
2018-08-24T06:59:53.821Z,83.03
2018-08-24T07:00:53.800Z,82.64
2018-08-24T07:01:53.781Z,81.48
2018-08-24T07:02:53.764Z,81.87
2018-08-24T07:03:53.744Z,81.96
2018-08-24T07:04:53.726Z,80.04
2018-08-24T07:05:53.731Z,77.50
2018-08-24T07:06:53.689Z,74.77
2018-08-24T07:07:53.670Z,69.95
2018-08-24T07:08:53.654Z,67.91
2018-08-24T07:09:53.636Z,69.66
2018-08-24T07:10:53.618Z,67.95
2018-08-24T07:11:53.601Z,65.82
2018-08-24T07:12:53.605Z,66.30
2018-08-24T07:13:53.566Z,65.40
2018-08-24T07:14:53.549Z,64.43
2018-08-24T07:15:53.533Z,64.47
2018-08-24T07:16:53.517Z,65.53
2018-08-24T07:17:53.500Z,65.82
2018-08-24T07:18:53.483Z,66.82
2018-08-24T07:19:53.499Z,66.78
2018-08-24T07:20:53.451Z,68.46
2018-08-24T07:21:53.434Z,69.87
2018-08-24T07:22:53.419Z,71.58
2018-08-24T07:23:53.403Z,72.15
2018-08-24T07:24:53.386Z,73.37
2018-08-24T07:25:53.368Z,73.37
2018-08-24T07:26:53.353Z,73.08
2018-08-24T07:27:53.337Z,72.60
2018-08-24T07:28:53.319Z,72.69
2018-08-24T07:29:53.302Z,72.27
2018-08-24T07:30:53.287Z,72.66
2018-08-24T07:31:53.269Z,73.33
2018-08-24T07:32:53.252Z,72.66
2018-08-24T07:33:53.234Z,71.92
2018-08-24T07:34:53.217Z,70.03
2018-08-24T07:35:53.200Z,69.04
2018-08-24T07:36:53.182Z,67.46
2018-08-24T07:37:53.163Z,67.30
2018-08-24T07:38:53.146Z,65.59
2018-08-24T07:39:53.128Z,63.11
2018-08-24T07:40:53.113Z,61.15
2018-08-24T07:41:53.213Z,60.69
2018-08-24T07:42:53.076Z,60.85
2018-08-24T07:43:53.062Z,60.04
2018-08-24T07:44:53.045Z,55.26
2018-08-24T07:45:53.027Z,54.34
2018-08-24T07:46:53.011Z,52.42
2018-08-24T07:47:52.994Z,50.80
2018-08-24T07:48:52.980Z,49.51
2018-08-24T07:49:52.963Z,50.43
2018-08-24T07:50:52.968Z,48.61
2018-08-24T07:51:52.935Z,47.88
2018-08-24T07:52:52.918Z,47.66
2018-08-24T07:53:52.904Z,46.72
2018-08-24T07:54:52.889Z,50.92
2018-08-24T07:55:52.876Z,51.83
2018-08-24T07:56:52.908Z,54.22
2018-08-24T07:57:52.845Z,54.51
2018-08-24T07:58:52.830Z,52.02
2018-08-24T07:59:52.817Z,51.13
2018-08-24T08:00:52.801Z,50.71
2018-08-24T08:01:52.786Z,51.95
2018-08-24T08:02:52.770Z,51.95
2018-08-24T08:03:52.756Z,52.40
2018-08-24T08:04:52.738Z,52.33
2018-08-24T08:05:52.725Z,52.50
2018-08-24T08:06:52.707Z,53.63
2018-08-24T08:07:52.691Z,53.59
2018-08-24T08:08:52.676Z,52.84
2018-08-24T08:09:52.658Z,52.58
2018-08-24T08:10:52.645Z,49.58
2018-08-24T08:11:52.628Z,50.43
2018-08-24T08:12:52.616Z,52.04
2018-08-24T08:13:52.598Z,53.59
2018-08-24T08:14:52.623Z,52.55
2018-08-24T08:15:52.565Z,51.83
2018-08-24T08:16:52.549Z,48.61
2018-08-24T08:17:52.532Z,46.31
2018-08-24T08:18:52.517Z,46.09
2018-08-24T08:19:52.503Z,46.58
2018-08-24T08:20:52.487Z,45.15
2018-08-24T08:21:52.470Z,43.84
2018-08-24T08:22:52.456Z,43.89
2018-08-24T08:23:52.442Z,45.98
2018-08-24T08:24:52.426Z,46.22
2018-08-24T08:25:52.410Z,47.77
2018-08-24T08:26:52.397Z,47.48
2018-08-24T08:27:52.382Z,47.74
2018-08-24T08:28:52.369Z,48.52
2018-08-24T08:29:52.352Z,48.61
2018-08-24T08:30:52.339Z,49.85
2018-08-24T08:31:52.321Z,51.82
2018-08-24T08:32:52.307Z,52.59
2018-08-24T08:33:52.290Z,53.01
2018-08-24T08:34:52.275Z,51.56
2018-08-24T08:35:52.259Z,50.16
2018-08-24T08:36:52.244Z,48.76
2018-08-24T08:37:52.226Z,46.83
2018-08-24T08:38:52.230Z,48.35
2018-08-24T08:39:52.195Z,49.15
2018-08-24T08:40:52.181Z,49.07
2018-08-24T08:41:52.166Z,48.49
2018-08-24T08:42:52.147Z,48.97
2018-08-24T08:43:52.132Z,48.37
2018-08-24T08:44:52.116Z,50.21
2018-08-24T08:45:52.102Z,50.40
2018-08-24T08:46:52.085Z,51.15
2018-08-24T08:47:52.069Z,51.83
2018-08-24T08:48:52.056Z,51.18
2018-08-24T08:49:52.037Z,49.82
2018-08-24T08:50:52.024Z,50.50
2018-08-24T08:51:52.007Z,50.70
2018-08-24T08:52:51.992Z,51.37
2018-08-24T08:53:51.975Z,50.31
2018-08-24T08:54:51.961Z,51.15
2018-08-24T08:55:51.946Z,51.20
2018-08-24T08:56:51.931Z,49.95
2018-08-24T08:57:51.918Z,50.09
2018-08-24T08:58:51.899Z,52.12
2018-08-24T08:59:51.884Z,52.48
2018-08-24T09:00:51.871Z,52.67
2018-08-24T09:01:51.853Z,54.27
2018-08-24T09:02:51.837Z,55.04
2018-08-24T09:03:51.822Z,55.42
2018-08-24T09:04:51.806Z,55.93
2018-08-24T09:05:51.805Z,53.55
2018-08-24T09:06:51.776Z,52.31
2018-08-24T09:07:51.759Z,52.44
2018-08-24T09:08:51.743Z,51.20
2018-08-24T09:09:51.727Z,50.43
2018-08-24T09:10:51.712Z,49.29
2018-08-24T09:11:51.698Z,47.77
2018-08-24T09:12:51.732Z,46.89
2018-08-24T09:13:51.667Z,48.42
2018-08-24T09:14:51.656Z,49.17
2018-08-24T09:15:51.638Z,49.54
2018-08-24T09:16:51.620Z,50.04
2018-08-24T09:17:51.605Z,48.86
2018-08-24T09:18:51.591Z,49.44
2018-08-24T09:19:51.575Z,49.73
2018-08-24T09:20:51.561Z,49.44
2018-08-24T09:21:51.545Z,48.79
2018-08-24T09:22:51.532Z,48.61
2018-08-24T09:23:51.514Z,47.06
2018-08-24T09:24:51.499Z,45.83
2018-08-24T09:25:51.552Z,46.02
2018-08-24T09:26:51.469Z,46.87
2018-08-24T09:27:51.455Z,46.58
2018-08-24T09:28:51.440Z,47.16
2018-08-24T09:29:51.425Z,46.67
2018-08-24T09:30:51.408Z,47.64
2018-08-24T09:31:51.392Z,46.84
2018-08-24T09:32:51.445Z,48.13
2018-08-24T09:33:51.363Z,47.72
2018-08-24T09:34:51.346Z,47.52
2018-08-24T09:35:51.332Z,48.61
2018-08-24T09:36:51.319Z,47.67
2018-08-24T09:37:51.322Z,47.38
2018-08-24T09:38:51.287Z,46.02
2018-08-24T09:39:51.271Z,46.46
2018-08-24T09:40:51.258Z,47.89
2018-08-24T09:41:51.240Z,47.52
2018-08-24T09:42:51.232Z,48.42
2018-08-24T09:43:51.213Z,46.22
2018-08-24T09:44:51.197Z,46.89
2018-08-24T09:45:51.181Z,45.22
2018-08-24T09:46:51.167Z,46.56
2018-08-24T09:47:51.151Z,46.97
2018-08-24T09:48:51.136Z,45.07
2018-08-24T09:49:51.123Z,44.20
2018-08-24T09:50:51.108Z,42.77
2018-08-24T09:51:51.094Z,42.67
2018-08-24T09:52:51.079Z,42.19
2018-08-24T09:53:51.063Z,42.38
2018-08-24T09:54:51.049Z,42.40
2018-08-24T09:55:51.039Z,41.92
2018-08-24T09:56:51.126Z,41.53
2018-08-24T09:57:51.007Z,41.43
2018-08-24T09:58:50.991Z,42.21
2018-08-24T09:59:50.978Z,43.49
2018-08-24T10:00:50.965Z,43.84
2018-08-24T10:01:50.949Z,44.86
2018-08-24T10:02:50.960Z,45.15
2018-08-24T10:03:50.971Z,46.48
2018-08-24T10:04:50.906Z,44.93
2018-08-24T10:05:50.891Z,44.64
2018-08-24T10:06:50.903Z,45.15
2018-08-24T10:07:50.865Z,44.27
2018-08-24T10:08:50.847Z,44.47
2018-08-24T10:09:50.833Z,44.64
2018-08-24T10:10:50.819Z,45.22
2018-08-24T10:11:50.805Z,46.48
2018-08-24T10:12:50.789Z,46.70
2018-08-24T10:13:50.774Z,46.77
2018-08-24T10:14:50.761Z,45.81
2018-08-24T10:15:50.746Z,47.55
2018-08-24T10:16:50.732Z,48.49
2018-08-24T10:17:50.716Z,47.79
2018-08-24T10:18:50.699Z,47.89
2018-08-24T10:19:50.688Z,48.54
2018-08-24T10:20:50.670Z,49.60
2018-08-24T10:21:50.655Z,49.90
2018-08-24T10:22:50.644Z,49.60
2018-08-24T10:23:50.626Z,49.60
2018-08-24T10:24:50.611Z,48.64
2018-08-24T10:25:50.596Z,49.19
2018-08-24T10:26:50.580Z,49.19
2018-08-24T10:27:50.565Z,48.83
2018-08-24T10:28:50.552Z,49.29
2018-08-24T10:29:50.683Z,49.68
2018-08-24T10:30:50.521Z,49.58
2018-08-24T10:31:50.504Z,49.58
2018-08-24T10:32:50.489Z,51.13
2018-08-24T10:33:50.505Z,50.57
2018-08-24T10:34:50.484Z,50.07
2018-08-24T10:35:50.443Z,50.26
2018-08-24T10:36:50.428Z,50.52
2018-08-24T10:37:50.412Z,50.23
2018-08-24T10:38:50.398Z,50.81
2018-08-24T10:39:50.381Z,50.23
2018-08-24T10:40:50.412Z,51.65
2018-08-24T10:41:50.348Z,52.31
2018-08-24T10:42:50.333Z,53.25
2018-08-24T10:43:50.317Z,53.05
2018-08-24T10:44:50.303Z,53.83
2018-08-24T10:45:50.286Z,54.11
2018-08-24T10:46:50.270Z,55.08
2018-08-24T10:47:50.261Z,55.08
2018-08-24T10:48:50.237Z,53.73
2018-08-24T10:49:50.220Z,54.60
2018-08-24T10:50:50.204Z,54.86
2018-08-24T10:51:50.187Z,55.66
2018-08-24T10:52:50.173Z,55.54
2018-08-24T10:53:50.153Z,55.34
2018-08-24T10:54:50.147Z,55.89
2018-08-24T10:55:50.293Z,56.57
2018-08-24T10:56:50.103Z,56.30
2018-08-24T10:57:50.089Z,55.15
2018-08-24T10:58:50.070Z,55.66
2018-08-24T10:59:50.054Z,54.82
2018-08-24T11:00:50.036Z,53.49
2018-08-24T11:01:50.021Z,52.45
2018-08-24T11:02:50.004Z,51.78
2018-08-24T11:03:49.987Z,50.91
2018-08-24T11:04:49.973Z,51.29
2018-08-24T11:05:49.955Z,50.43
2018-08-24T11:06:49.939Z,50.59
2018-08-24T11:07:50.019Z,51.56
2018-08-24T11:08:49.906Z,52.01
2018-08-24T11:09:49.892Z,52.59
2018-08-24T11:10:49.872Z,52.95
2018-08-24T11:11:49.857Z,53.83
2018-08-24T11:12:49.840Z,54.47
2018-08-24T11:13:49.822Z,55.54
2018-08-24T11:14:49.805Z,55.92
2018-08-24T11:15:49.789Z,56.11
2018-08-24T11:16:49.822Z,54.69
2018-08-24T11:17:49.757Z,55.66
2018-08-24T11:18:49.737Z,54.88
2018-08-24T11:19:49.721Z,54.02
2018-08-24T11:20:49.704Z,54.79
2018-08-24T11:21:49.688Z,54.21
2018-08-24T11:22:49.669Z,54.11
2018-08-24T11:23:49.654Z,54.31
2018-08-24T11:24:49.639Z,54.50
2018-08-24T11:25:49.619Z,54.14
2018-08-24T11:26:49.638Z,53.53
2018-08-24T11:27:49.588Z,54.31
2018-08-24T11:28:49.572Z,53.85
2018-08-24T11:29:49.553Z,53.08
2018-08-24T11:30:49.536Z,52.89
2018-08-24T11:31:49.519Z,52.69
2018-08-24T11:32:49.503Z,52.89
2018-08-24T11:33:49.530Z,52.53
2018-08-24T11:34:49.470Z,53.30
2018-08-24T11:35:49.516Z,52.43
2018-08-24T11:36:49.434Z,51.75
2018-08-24T11:37:49.420Z,51.78
2018-08-24T11:38:49.406Z,51.01
2018-08-24T11:39:49.387Z,50.33
2018-08-24T11:40:49.368Z,50.65
2018-08-24T11:41:49.419Z,50.23
2018-08-24T11:42:49.336Z,50.81
2018-08-24T11:43:49.320Z,51.20
2018-08-24T11:44:49.301Z,51.75
2018-08-24T11:45:49.285Z,52.04
2018-08-24T11:46:49.272Z,51.46
2018-08-24T11:47:49.272Z,52.43
2018-08-24T11:48:49.237Z,51.85
2018-08-24T11:49:49.221Z,51.87
2018-08-24T11:50:49.205Z,50.07
2018-08-24T11:51:49.187Z,49.32
2018-08-24T11:52:49.171Z,47.41
2018-08-24T11:53:49.155Z,46.75
2018-08-24T11:54:49.140Z,46.56
2018-08-24T11:55:49.124Z,45.98
2018-08-24T11:56:49.108Z,45.78
2018-08-24T11:57:49.092Z,46.70
2018-08-24T11:58:49.075Z,47.94
2018-08-24T11:59:49.124Z,48.39
2018-08-24T12:00:49.046Z,49.34
2018-08-24T12:01:49.028Z,50.47
2018-08-24T12:02:49.012Z,51.44
2018-08-24T12:03:48.997Z,51.63
2018-08-24T12:04:48.983Z,51.95
2018-08-24T12:05:48.964Z,51.27
2018-08-24T12:06:48.949Z,50.59
2018-08-24T12:07:48.939Z,50.52
2018-08-24T12:08:48.918Z,51.56
2018-08-24T12:09:48.902Z,50.50
2018-08-24T12:10:48.884Z,50.50
2018-08-24T12:11:48.870Z,50.91
2018-08-24T12:12:48.854Z,49.55
2018-08-24T12:13:48.890Z,49.37
2018-08-24T12:14:48.821Z,48.79
2018-08-24T12:15:48.805Z,48.69
2018-08-24T12:16:48.792Z,48.66
2018-08-24T12:17:48.774Z,49.53
2018-08-24T12:18:48.759Z,49.44
2018-08-24T12:19:48.743Z,50.31
2018-08-24T12:20:48.741Z,50.01
2018-08-24T12:21:48.711Z,48.95
2018-08-24T12:22:48.695Z,48.69
2018-08-24T12:23:48.677Z,48.59
2018-08-24T12:24:48.661Z,48.42
2018-08-24T12:25:48.646Z,46.80
2018-08-24T12:26:48.629Z,46.90
2018-08-24T12:27:48.612Z,45.91
2018-08-24T12:28:48.597Z,47.45
2018-08-24T12:29:48.583Z,47.81
2018-08-24T12:30:48.615Z,48.71
2018-08-24T12:31:48.549Z,48.42
2018-08-24T12:32:48.533Z,48.79
2018-08-24T12:33:48.518Z,48.69
2018-08-24T12:34:48.541Z,48.59
2018-08-24T12:35:48.485Z,48.69
2018-08-24T12:36:48.469Z,48.61
2018-08-24T12:37:48.454Z,47.63
2018-08-24T12:38:48.438Z,47.16
2018-08-24T12:39:48.422Z,47.84
2018-08-24T12:40:48.405Z,47.45
2018-08-24T12:41:48.389Z,47.84
2018-08-24T12:42:48.374Z,48.06
2018-08-24T12:43:48.358Z,47.38
2018-08-24T12:44:48.345Z,47.19
2018-08-24T12:45:48.327Z,46.88
2018-08-24T12:46:48.311Z,47.43
2018-08-24T12:47:48.297Z,48.30
2018-08-24T12:48:48.280Z,48.21
2018-08-24T12:49:48.264Z,48.69
2018-08-24T12:50:48.248Z,49.27
2018-08-24T12:51:48.233Z,49.17